createdAt,value
2018-06-09T00:01:14.087Z,17.18
2018-06-09T00:02:41.574Z,17.18
2018-06-09T00:04:10.112Z,17.20
2018-06-09T00:05:36.496Z,17.21
2018-06-09T00:07:03.749Z,17.20
2018-06-09T00:08:31.236Z,17.16
2018-06-09T00:09:58.529Z,17.13
2018-06-09T00:11:25.978Z,17.10
2018-06-09T00:12:53.283Z,17.10
2018-06-09T00:14:21.655Z,17.11
2018-06-09T00:15:48.174Z,17.11
2018-06-09T00:17:15.464Z,17.12
2018-06-09T00:18:42.889Z,17.14
2018-06-09T00:20:11.412Z,17.16
2018-06-09T00:21:37.729Z,17.17
2018-06-09T00:23:05.021Z,17.16
2018-06-09T00:24:32.424Z,17.17
2018-06-09T00:25:59.963Z,17.14
2018-06-09T00:27:27.493Z,17.12
2018-06-09T00:28:54.922Z,17.11
2018-06-09T00:30:22.274Z,17.10
2018-06-09T00:31:49.642Z,17.09
2018-06-09T00:33:18.208Z,17.09
2018-06-09T00:34:45.718Z,17.08
2018-06-09T00:36:13.185Z,17.09
2018-06-09T00:37:39.582Z,17.07
2018-06-09T00:39:07.024Z,17.07
2018-06-09T00:40:34.258Z,17.08
2018-06-09T00:42:01.418Z,17.08
2018-06-09T00:43:28.619Z,17.05
2018-06-09T00:44:55.980Z,17.05
2018-06-09T00:46:24.362Z,17.03
2018-06-09T00:47:51.780Z,17.00
2018-06-09T00:49:18.258Z,16.97
2018-06-09T00:50:45.825Z,16.95
2018-06-09T00:52:14.213Z,16.93
2018-06-09T00:53:40.689Z,16.89
2018-06-09T00:55:08.948Z,16.80
2018-06-09T00:56:35.343Z,16.73
2018-06-09T00:58:02.773Z,16.66
2018-06-09T00:59:31.331Z,16.61
2018-06-09T01:00:58.858Z,16.57
2018-06-09T01:02:25.128Z,16.56
2018-06-09T01:03:55.437Z,16.53
2018-06-09T01:05:20.950Z,16.47
2018-06-09T01:06:47.338Z,16.44
2018-06-09T01:08:14.584Z,16.41
2018-06-09T01:09:41.770Z,16.37
2018-06-09T01:11:09.066Z,16.31
2018-06-09T01:12:36.557Z,16.25
2018-06-09T01:14:05.113Z,16.21
2018-06-09T01:15:31.240Z,16.16
2018-06-09T01:16:59.583Z,16.11
2018-06-09T01:18:25.916Z,16.10
2018-06-09T01:19:53.381Z,16.09
2018-06-09T01:21:20.747Z,16.08
2018-06-09T01:22:49.380Z,16.07
2018-06-09T01:24:15.457Z,16.04
2018-06-09T01:25:43.916Z,16.05
2018-06-09T01:27:10.212Z,16.05
2018-06-09T01:28:37.702Z,16.06
2018-06-09T01:30:05.293Z,16.06
2018-06-09T01:31:32.832Z,16.05
2018-06-09T01:33:00.324Z,16.03
2018-06-09T01:34:28.673Z,16.00
2018-06-09T01:35:55.212Z,15.98
2018-06-09T01:37:22.464Z,15.96
2018-06-09T01:38:50.978Z,15.96
2018-06-09T01:40:18.552Z,15.97
2018-06-09T01:41:44.861Z,16.01
2018-06-09T01:43:13.339Z,16.05
2018-06-09T01:44:39.643Z,16.09
2018-06-09T01:46:07.924Z,16.13
2018-06-09T01:47:34.056Z,16.15
2018-06-09T01:49:01.475Z,16.18
2018-06-09T01:50:29.731Z,16.18
2018-06-09T01:51:57.298Z,16.19
2018-06-09T01:53:24.608Z,16.19
2018-06-09T01:54:52.179Z,16.20
2018-06-09T01:56:18.487Z,16.23
2018-06-09T01:57:45.891Z,16.25
2018-06-09T01:59:13.263Z,16.26
2018-06-09T02:00:41.528Z,16.27
2018-06-09T02:02:07.927Z,16.28
2018-06-09T02:03:36.562Z,16.28
2018-06-09T02:05:02.955Z,16.29
2018-06-09T02:06:30.312Z,16.28
2018-06-09T02:07:57.719Z,16.25
2018-06-09T02:09:25.187Z,16.22
2018-06-09T02:10:52.676Z,16.17
2018-06-09T02:12:20.318Z,16.13
2018-06-09T02:13:48.710Z,16.12
2018-06-09T02:15:15.977Z,16.11
2018-06-09T02:16:42.016Z,16.10
2018-06-09T02:18:09.271Z,16.08
2018-06-09T02:19:37.931Z,16.05
2018-06-09T02:21:05.325Z,16.01
2018-06-09T02:22:32.704Z,15.98
2018-06-09T02:23:59.001Z,15.94
2018-06-09T02:25:27.516Z,15.88
2018-06-09T02:26:53.894Z,15.82
2018-06-09T02:28:20.956Z,15.78
2018-06-09T02:29:48.370Z,15.73
2018-06-09T02:31:15.809Z,15.68
2018-06-09T02:32:44.333Z,15.65
2018-06-09T02:34:10.796Z,15.61
2018-06-09T02:35:38.992Z,15.57
2018-06-09T02:37:05.187Z,15.55
2018-06-09T02:38:32.548Z,15.53
2018-06-09T02:40:00.850Z,15.50
2018-06-09T02:41:27.317Z,15.48
2018-06-09T02:42:55.766Z,15.45
2018-06-09T02:44:22.196Z,15.44
2018-06-09T02:45:49.719Z,15.43
2018-06-09T02:47:17.145Z,15.43
2018-06-09T02:48:44.627Z,15.43
2018-06-09T02:50:12.031Z,15.44
2018-06-09T02:51:39.352Z,15.44
2018-06-09T02:53:06.544Z,15.42
2018-06-09T02:54:34.148Z,15.40
2018-06-09T02:56:01.189Z,15.38
2018-06-09T02:57:28.700Z,15.38
2018-06-09T02:58:56.997Z,15.36
2018-06-09T03:00:23.159Z,15.36
2018-06-09T03:01:50.655Z,15.34
2018-06-09T03:03:18.226Z,15.31
2018-06-09T03:04:45.604Z,15.29
2018-06-09T03:06:13.148Z,15.28
2018-06-09T03:07:41.553Z,15.27
2018-06-09T03:09:07.959Z,15.27
2018-06-09T03:10:35.359Z,15.24
2018-06-09T03:12:03.815Z,15.22
2018-06-09T03:13:30.047Z,15.22
2018-06-09T03:14:58.704Z,15.23
2018-06-09T03:16:24.903Z,15.24
2018-06-09T03:17:52.359Z,15.28
2018-06-09T03:19:20.886Z,15.33
2018-06-09T03:20:48.423Z,15.40
2018-06-09T03:22:14.973Z,15.47
2018-06-09T03:23:42.224Z,15.52
2018-06-09T03:25:09.582Z,15.55
2018-06-09T03:26:37.089Z,15.55
2018-06-09T03:28:04.452Z,15.55
2018-06-09T03:29:32.906Z,15.54
2018-06-09T03:31:00.417Z,15.52
2018-06-09T03:32:26.748Z,15.52
2018-06-09T03:33:55.260Z,15.50
2018-06-09T03:35:22.643Z,15.50
2018-06-09T03:36:48.880Z,15.50
2018-06-09T03:38:16.202Z,15.53
2018-06-09T03:39:43.675Z,15.54
2018-06-09T03:41:12.087Z,15.55
2018-06-09T03:42:38.421Z,15.56
2018-06-09T03:44:05.973Z,15.57
2018-06-09T03:45:33.376Z,15.57
2018-06-09T03:47:01.694Z,15.57
2018-06-09T03:48:27.924Z,15.58
2018-06-09T03:49:55.430Z,15.61
2018-06-09T03:51:22.736Z,15.69
2018-06-09T03:52:50.180Z,15.83
2018-06-09T03:54:17.541Z,16.01
2018-06-09T03:55:45.927Z,16.23
2018-06-09T03:57:13.604Z,16.44
2018-06-09T03:58:39.936Z,16.62
2018-06-09T04:00:07.471Z,16.75
2018-06-09T04:01:36.004Z,16.83
2018-06-09T04:03:02.284Z,16.87
2018-06-09T04:04:30.710Z,16.86
2018-06-09T04:05:57.209Z,16.84
2018-06-09T04:07:25.805Z,16.81
2018-06-09T04:08:52.249Z,16.80
2018-06-09T04:10:19.631Z,16.78
2018-06-09T04:11:48.167Z,16.76
2018-06-09T04:13:15.725Z,16.75
2018-06-09T04:14:41.865Z,16.74
2018-06-09T04:16:10.280Z,16.75
2018-06-09T04:17:36.609Z,16.75
2018-06-09T04:19:05.243Z,16.73
2018-06-09T04:20:31.498Z,16.73
2018-06-09T04:22:00.060Z,16.72
2018-06-09T04:23:26.491Z,16.70
2018-06-09T04:24:54.931Z,16.70
2018-06-09T04:26:22.468Z,16.68
2018-06-09T04:27:48.832Z,16.66
2018-06-09T04:29:17.222Z,16.64
2018-06-09T04:30:43.504Z,16.64
2018-06-09T04:32:11.024Z,16.65
2018-06-09T04:33:38.488Z,16.67
2018-06-09T04:35:05.828Z,16.69
2018-06-09T04:36:33.098Z,16.70
2018-06-09T04:38:00.761Z,16.72
2018-06-09T04:39:28.240Z,16.74
2018-06-09T04:40:56.773Z,16.77
2018-06-09T04:42:24.360Z,16.80
2018-06-09T04:43:50.801Z,16.83
2018-06-09T04:45:18.360Z,16.87
2018-06-09T04:46:46.780Z,16.91
2018-06-09T04:48:13.198Z,16.94
2018-06-09T04:49:40.700Z,16.98
2018-06-09T04:51:08.290Z,17.01
2018-06-09T04:52:35.741Z,17.05
2018-06-09T04:54:04.107Z,17.08
2018-06-09T04:55:31.463Z,17.11
2018-06-09T04:56:57.916Z,17.15
2018-06-09T04:58:26.492Z,17.19
2018-06-09T04:59:52.703Z,17.24
2018-06-09T05:01:21.295Z,17.30
2018-06-09T05:02:47.439Z,17.37
2018-06-09T05:04:14.825Z,17.44
2018-06-09T05:05:42.302Z,17.53
2018-06-09T05:07:09.798Z,17.60
2018-06-09T05:08:37.152Z,17.68
2018-06-09T05:10:04.749Z,17.76
2018-06-09T05:11:33.249Z,17.83
2018-06-09T05:12:59.724Z,17.91
2018-06-09T05:14:28.323Z,17.99
2018-06-09T05:15:54.817Z,18.07
2018-06-09T05:17:22.442Z,18.14
2018-06-09T05:18:49.651Z,18.20
2018-06-09T05:20:17.192Z,18.27
2018-06-09T05:21:44.471Z,18.36
2018-06-09T05:23:11.909Z,18.43
2018-06-09T05:24:39.367Z,18.52
2018-06-09T05:26:06.845Z,18.61
2018-06-09T05:27:34.428Z,18.68
2018-06-09T05:29:01.637Z,18.78
2018-06-09T05:30:29.122Z,18.89
2018-06-09T05:31:56.615Z,19.00
2018-06-09T05:33:24.130Z,19.13
2018-06-09T05:34:51.797Z,19.28
2018-06-09T05:36:20.532Z,19.51
2018-06-09T05:37:48.081Z,19.84
2018-06-09T05:39:14.716Z,20.22
2018-06-09T05:40:42.258Z,20.57
2018-06-09T05:42:09.940Z,20.75
2018-06-09T05:43:37.407Z,20.96
2018-06-09T05:45:05.967Z,21.09
2018-06-09T05:46:32.644Z,21.18
2018-06-09T05:48:01.037Z,21.34
2018-06-09T05:49:27.612Z,21.54
2018-06-09T05:50:55.164Z,21.60
2018-06-09T05:52:23.791Z,21.72
2018-06-09T05:53:50.440Z,21.76
2018-06-09T05:55:18.032Z,21.75
2018-06-09T05:56:45.508Z,21.70
2018-06-09T05:58:12.724Z,21.74
2018-06-09T05:59:40.200Z,21.72
2018-06-09T06:01:07.653Z,21.70
2018-06-09T06:02:35.257Z,21.70
2018-06-09T06:04:02.595Z,21.63
2018-06-09T06:05:30.184Z,21.48
2018-06-09T06:06:58.765Z,21.49
2018-06-09T06:08:25.092Z,21.51
2018-06-09T06:09:53.779Z,21.57
2018-06-09T06:11:21.279Z,21.60
2018-06-09T06:12:47.819Z,21.57
2018-06-09T06:14:16.345Z,21.59
2018-06-09T06:15:42.927Z,21.60
2018-06-09T06:17:10.415Z,21.62
2018-06-09T06:18:37.993Z,21.64
2018-06-09T06:20:05.317Z,21.69
2018-06-09T06:21:32.729Z,21.74
2018-06-09T06:23:00.312Z,21.82
2018-06-09T06:24:28.182Z,21.92
2018-06-09T06:25:55.903Z,22.04
2018-06-09T06:27:23.550Z,22.15
2018-06-09T06:28:52.004Z,22.32
2018-06-09T06:30:19.352Z,22.45
2018-06-09T06:31:47.106Z,22.61
2018-06-09T06:33:14.818Z,22.84
2018-06-09T06:34:42.567Z,23.09
2018-06-09T06:36:09.198Z,23.34
2018-06-09T06:37:37.936Z,23.54
2018-06-09T06:39:04.651Z,23.78
2018-06-09T06:40:32.353Z,24.03
2018-06-09T06:42:00.537Z,24.39
2018-06-09T06:43:27.261Z,24.66
2018-06-09T06:44:55.960Z,25.00
2018-06-09T06:46:22.669Z,25.41
2018-06-09T06:47:51.325Z,25.85
2018-06-09T06:49:18.158Z,26.17
2018-06-09T06:50:46.893Z,26.47
2018-06-09T06:52:14.578Z,26.49
2018-06-09T06:53:42.241Z,26.41
2018-06-09T06:55:09.686Z,26.29
2018-06-09T06:56:36.423Z,25.99
2018-06-09T06:58:05.149Z,25.77
2018-06-09T06:59:31.618Z,25.63
2018-06-09T07:00:59.266Z,25.39
2018-06-09T07:02:27.859Z,25.11
2018-06-09T07:03:55.420Z,25.03
2018-06-09T07:05:23.120Z,24.96
2018-06-09T07:06:50.782Z,24.85
2018-06-09T07:08:17.420Z,24.77
2018-06-09T07:09:45.015Z,24.74
2018-06-09T07:11:13.769Z,24.70
2018-06-09T07:12:41.238Z,24.77
2018-06-09T07:14:08.936Z,24.87
2018-06-09T07:15:35.621Z,25.11
2018-06-09T07:17:03.015Z,25.38
2018-06-09T07:18:30.745Z,25.54
2018-06-09T07:19:58.443Z,25.53
2018-06-09T07:21:26.034Z,25.58
2018-06-09T07:22:53.645Z,25.70
2018-06-09T07:24:22.427Z,25.74
2018-06-09T07:25:49.150Z,25.69
2018-06-09T07:27:17.697Z,25.73
2018-06-09T07:28:44.413Z,25.72
2018-06-09T07:30:12.044Z,25.69
2018-06-09T07:31:39.627Z,25.59
2018-06-09T07:33:07.267Z,25.50
2018-06-09T07:34:34.947Z,25.45
2018-06-09T07:36:02.522Z,25.44
2018-06-09T07:37:30.206Z,25.44
2018-06-09T07:38:58.932Z,25.38
2018-06-09T07:40:26.558Z,25.37
2018-06-09T07:41:53.193Z,25.36
2018-06-09T07:43:20.991Z,25.40
2018-06-09T07:44:48.650Z,25.44
2018-06-09T07:46:16.246Z,25.46
2018-06-09T07:47:44.780Z,25.46
2018-06-09T07:49:11.519Z,25.47
2018-06-09T07:50:39.150Z,25.47
2018-06-09T07:52:06.779Z,25.48
2018-06-09T07:53:35.608Z,25.46
2018-06-09T07:55:02.207Z,25.43
2018-06-09T07:56:29.946Z,25.38
2018-06-09T07:57:58.621Z,25.30
2018-06-09T07:59:26.016Z,25.30
2018-06-09T08:00:52.725Z,25.33
2018-06-09T08:02:21.384Z,25.34
2018-06-09T08:03:47.684Z,25.38
2018-06-09T08:05:15.276Z,25.40
2018-06-09T08:06:42.872Z,25.43
2018-06-09T08:08:10.567Z,25.46
2018-06-09T08:09:38.292Z,25.47
2018-06-09T08:11:05.819Z,25.46
2018-06-09T08:12:34.305Z,25.47
2018-06-09T08:14:00.688Z,25.50
2018-06-09T08:15:28.202Z,25.52
2018-06-09T08:16:55.953Z,25.56
2018-06-09T08:18:23.456Z,25.61
2018-06-09T08:19:51.193Z,25.65
2018-06-09T08:21:18.800Z,25.69
2018-06-09T08:22:46.657Z,25.73
2018-06-09T08:24:14.375Z,25.72
2018-06-09T08:25:43.151Z,25.69
2018-06-09T08:27:09.819Z,25.66
2018-06-09T08:28:37.497Z,25.67
2018-06-09T08:30:05.081Z,25.72
2018-06-09T08:31:32.813Z,25.77
2018-06-09T08:33:00.528Z,25.78
2018-06-09T08:34:28.213Z,25.85
2018-06-09T08:35:56.052Z,25.91
2018-06-09T08:37:23.672Z,26.02
2018-06-09T08:38:51.493Z,26.11
2018-06-09T08:40:19.243Z,26.18
2018-06-09T08:41:46.755Z,26.22
2018-06-09T08:43:14.248Z,26.26
2018-06-09T08:44:43.088Z,26.32
2018-06-09T08:46:10.618Z,26.34
2018-06-09T08:47:38.350Z,26.34
2018-06-09T08:49:05.931Z,26.38
2018-06-09T08:50:32.618Z,26.44
2018-06-09T08:52:00.301Z,26.50
2018-06-09T08:53:27.938Z,26.56
2018-06-09T08:54:55.603Z,26.58
2018-06-09T08:56:23.401Z,26.62
2018-06-09T08:57:50.941Z,26.66
2018-06-09T08:59:19.548Z,26.72
2018-06-09T09:00:47.194Z,26.76
2018-06-09T09:02:13.671Z,26.77
2018-06-09T09:03:41.241Z,26.79
2018-06-09T09:05:08.690Z,26.82
2018-06-09T09:06:37.215Z,26.90
2018-06-09T09:08:03.689Z,26.98
2018-06-09T09:09:31.215Z,27.02
2018-06-09T09:10:58.883Z,27.02
2018-06-09T09:12:26.618Z,27.07
2018-06-09T09:13:55.269Z,27.15
2018-06-09T09:15:23.001Z,27.23
2018-06-09T09:16:50.747Z,27.31
2018-06-09T09:18:17.220Z,27.38
2018-06-09T09:19:44.959Z,27.45
2018-06-09T09:21:12.676Z,27.47
2018-06-09T09:22:40.296Z,27.45
2018-06-09T09:24:08.862Z,27.42
2018-06-09T09:25:35.119Z,27.43
2018-06-09T09:27:02.874Z,27.44
2018-06-09T09:28:30.487Z,27.48
2018-06-09T09:29:58.105Z,27.54
2018-06-09T09:31:25.723Z,27.60
2018-06-09T09:32:53.359Z,27.65
2018-06-09T09:34:21.109Z,27.67
2018-06-09T09:35:48.775Z,27.72
2018-06-09T09:37:16.509Z,27.78
2018-06-09T09:38:44.251Z,27.84
2018-06-09T09:40:12.938Z,27.89
2018-06-09T09:41:39.585Z,27.93
2018-06-09T09:43:07.328Z,27.96
2018-06-09T09:44:35.030Z,28.01
2018-06-09T09:46:02.689Z,28.07
2018-06-09T09:47:30.424Z,28.08
2018-06-09T09:48:58.133Z,28.12
2018-06-09T09:50:25.950Z,28.15
2018-06-09T09:51:53.709Z,28.19
2018-06-09T09:53:22.455Z,28.24
2018-06-09T09:54:50.003Z,28.28
2018-06-09T09:56:16.644Z,28.31
2018-06-09T09:57:45.428Z,28.35
2018-06-09T09:59:11.824Z,28.39
2018-06-09T10:00:39.452Z,28.42
2018-06-09T10:02:07.290Z,28.46
2018-06-09T10:03:34.930Z,28.46
2018-06-09T10:05:02.484Z,28.48
2018-06-09T10:06:30.308Z,28.50
2018-06-09T10:07:57.904Z,28.52
2018-06-09T10:09:25.722Z,28.55
2018-06-09T10:10:53.432Z,28.58
2018-06-09T10:12:21.214Z,28.60
2018-06-09T10:13:49.847Z,28.59
2018-06-09T10:15:16.520Z,28.58
2018-06-09T10:16:44.051Z,28.58
2018-06-09T10:18:11.720Z,28.60
2018-06-09T10:19:39.529Z,28.63
2018-06-09T10:21:07.276Z,28.68
2018-06-09T10:22:35.955Z,28.72
2018-06-09T10:24:03.546Z,28.76
2018-06-09T10:25:30.149Z,28.76
2018-06-09T10:26:57.935Z,28.79
2018-06-09T10:28:26.537Z,28.80
2018-06-09T10:29:53.239Z,28.81
2018-06-09T10:31:20.893Z,28.83
2018-06-09T10:32:48.619Z,28.84
2018-06-09T10:34:16.359Z,28.88
2018-06-09T10:35:44.003Z,28.92
2018-06-09T10:37:12.874Z,28.98
2018-06-09T10:38:39.553Z,29.03
2018-06-09T10:40:07.107Z,29.07
2018-06-09T10:41:34.851Z,29.11
2018-06-09T10:43:03.526Z,29.14
2018-06-09T10:44:30.197Z,29.17
2018-06-09T10:45:57.854Z,29.20
2018-06-09T10:47:25.687Z,29.21
2018-06-09T10:48:53.420Z,29.24
2018-06-09T10:50:22.104Z,29.32
2018-06-09T10:51:48.774Z,29.33
2018-06-09T10:53:16.554Z,29.51
2018-06-09T10:54:44.312Z,29.67
2018-06-09T10:56:13.058Z,29.92
2018-06-09T10:57:39.595Z,30.14
2018-06-09T10:59:07.088Z,30.35
2018-06-09T11:00:34.811Z,30.50
2018-06-09T11:02:02.487Z,30.66
2018-06-09T11:03:30.094Z,30.80
2018-06-09T11:04:57.863Z,30.94
2018-06-09T11:06:25.487Z,31.01
2018-06-09T11:07:53.090Z,31.15
2018-06-09T11:09:20.801Z,31.23
2018-06-09T11:10:48.322Z,31.37
2018-06-09T11:12:16.063Z,31.37
2018-06-09T11:13:43.751Z,31.39
2018-06-09T11:15:11.390Z,31.43
2018-06-09T11:16:39.080Z,31.53
2018-06-09T11:18:07.712Z,31.63
2018-06-09T11:19:34.436Z,31.86
2018-06-09T11:21:01.919Z,32.10
2018-06-09T11:22:29.629Z,32.26
2018-06-09T11:23:58.416Z,32.29
2018-06-09T11:25:26.238Z,32.19
2018-06-09T11:26:53.004Z,32.20
2018-06-09T11:28:20.515Z,32.21
2018-06-09T11:29:48.343Z,32.33
2018-06-09T11:31:16.077Z,32.47
2018-06-09T11:32:43.636Z,32.39
2018-06-09T11:34:11.499Z,32.25
2018-06-09T11:35:40.308Z,32.37
2018-06-09T11:37:07.093Z,32.28
2018-06-09T11:38:34.737Z,32.43
2018-06-09T11:40:02.439Z,32.54
2018-06-09T11:41:30.206Z,32.50
2018-06-09T11:42:58.934Z,32.38
2018-06-09T11:44:26.642Z,32.43
2018-06-09T11:45:54.437Z,32.42
2018-06-09T11:47:21.062Z,32.34
2018-06-09T11:48:48.826Z,32.24
2018-06-09T11:50:16.522Z,32.26
2018-06-09T11:51:45.315Z,32.38
2018-06-09T11:53:13.096Z,32.45
2018-06-09T11:54:40.667Z,32.45
2018-06-09T11:56:08.537Z,32.34
2018-06-09T11:57:35.056Z,32.31
2018-06-09T11:59:02.757Z,32.33
2018-06-09T12:00:30.585Z,32.36
2018-06-09T12:01:58.273Z,32.39
2018-06-09T12:03:26.966Z,32.46
2018-06-09T12:04:54.703Z,32.51
2018-06-09T12:06:22.590Z,32.60
2018-06-09T12:07:49.322Z,32.49
2018-06-09T12:09:17.667Z,32.45
2018-06-09T12:10:44.351Z,32.37
2018-06-09T12:12:12.159Z,32.34
2018-06-09T12:13:39.829Z,32.39
2018-06-09T12:15:08.600Z,32.42
2018-06-09T12:16:36.202Z,32.42
2018-06-09T12:18:03.008Z,32.45
2018-06-09T12:19:31.645Z,32.53
2018-06-09T12:20:58.199Z,32.63
2018-06-09T12:22:25.804Z,32.66
2018-06-09T12:23:54.639Z,32.56
2018-06-09T12:25:21.426Z,32.45
2018-06-09T12:26:49.381Z,32.31
2018-06-09T12:28:18.104Z,32.31
2018-06-09T12:29:44.726Z,32.31
2018-06-09T12:31:12.386Z,32.37
2018-06-09T12:32:40.317Z,32.45
2018-06-09T12:34:08.077Z,32.48
2018-06-09T12:35:35.755Z,32.52
2018-06-09T12:37:03.289Z,32.51
2018-06-09T12:38:30.931Z,32.50
2018-06-09T12:39:58.662Z,32.51
2018-06-09T12:41:26.372Z,32.44
2018-06-09T12:42:55.023Z,32.49
2018-06-09T12:44:21.867Z,32.52
2018-06-09T12:45:49.359Z,32.53
2018-06-09T12:47:18.147Z,32.58
2018-06-09T12:48:44.903Z,32.60
2018-06-09T12:50:12.671Z,32.57
2018-06-09T12:51:41.430Z,32.58
2018-06-09T12:53:08.169Z,32.61
2018-06-09T12:54:36.011Z,32.62
2018-06-09T12:56:03.788Z,32.58
2018-06-09T12:57:31.476Z,32.56
2018-06-09T12:59:00.309Z,32.52
2018-06-09T13:00:27.822Z,32.45
2018-06-09T13:01:54.353Z,32.43
2018-06-09T13:03:22.971Z,32.42
2018-06-09T13:04:49.728Z,32.39
2018-06-09T13:06:17.406Z,32.32
2018-06-09T13:07:45.113Z,32.30
2018-06-09T13:09:12.613Z,32.21
2018-06-09T13:10:40.383Z,32.15
2018-06-09T13:12:08.133Z,32.18
2018-06-09T13:13:35.871Z,32.16
2018-06-09T13:15:03.476Z,32.09
2018-06-09T13:16:30.780Z,32.03
2018-06-09T13:17:59.544Z,31.95
2018-06-09T13:19:26.350Z,31.79
2018-06-09T13:20:53.808Z,31.73
2018-06-09T13:22:22.628Z,31.65
2018-06-09T13:23:50.041Z,31.58
2018-06-09T13:25:17.805Z,31.52
2018-06-09T13:26:44.507Z,31.46
2018-06-09T13:28:12.229Z,31.41
2018-06-09T13:29:39.942Z,31.40
2018-06-09T13:31:07.649Z,31.39
2018-06-09T13:32:35.515Z,31.38
2018-06-09T13:34:04.044Z,31.38
2018-06-09T13:35:30.474Z,31.38
2018-06-09T13:36:59.202Z,31.41
2018-06-09T13:38:26.016Z,31.39
2018-06-09T13:39:53.828Z,31.36
2018-06-09T13:41:22.264Z,31.35
2018-06-09T13:42:49.810Z,31.37
2018-06-09T13:44:16.615Z,31.39
2018-06-09T13:45:45.191Z,31.41
2018-06-09T13:47:11.924Z,31.39
2018-06-09T13:48:39.656Z,31.35
2018-06-09T13:50:07.363Z,31.29
2018-06-09T13:51:35.129Z,31.25
2018-06-09T13:53:02.806Z,31.22
2018-06-09T13:54:30.386Z,31.21
2018-06-09T13:55:58.178Z,31.22
2018-06-09T13:57:25.988Z,31.22
2018-06-09T13:58:53.634Z,31.20
2018-06-09T14:00:21.763Z,31.16
2018-06-09T14:01:48.450Z,31.11
2018-06-09T14:03:16.310Z,31.07
2018-06-09T14:04:43.704Z,31.01
2018-06-09T14:06:11.349Z,30.96
2018-06-09T14:07:39.106Z,30.89
2018-06-09T14:09:06.819Z,30.82
2018-06-09T14:10:34.680Z,30.76
2018-06-09T14:12:02.165Z,30.71
2018-06-09T14:13:30.030Z,30.64
2018-06-09T14:14:57.788Z,30.58
2018-06-09T14:16:25.395Z,30.54
2018-06-09T14:17:53.060Z,30.52
2018-06-09T14:19:20.804Z,30.47
2018-06-09T14:20:48.520Z,30.43
2018-06-09T14:22:16.064Z,30.40
2018-06-09T14:23:44.870Z,30.35
2018-06-09T14:25:12.619Z,30.30
2018-06-09T14:26:39.312Z,30.24
2018-06-09T14:28:07.091Z,30.18
2018-06-09T14:29:34.537Z,30.12
2018-06-09T14:31:02.370Z,30.04
2018-06-09T14:32:30.069Z,29.96
2018-06-09T14:33:58.676Z,29.91
2018-06-09T14:35:25.444Z,29.89
2018-06-09T14:36:53.241Z,29.86
2018-06-09T14:38:20.829Z,29.84
2018-06-09T14:39:49.273Z,29.83
2018-06-09T14:41:15.963Z,29.80
2018-06-09T14:42:43.685Z,29.78
2018-06-09T14:44:12.512Z,29.75
2018-06-09T14:45:39.194Z,29.71
2018-06-09T14:47:06.969Z,29.67
2018-06-09T14:48:34.577Z,29.62
2018-06-09T14:50:03.277Z,29.59
2018-06-09T14:51:30.028Z,29.55
2018-06-09T14:52:57.749Z,29.51
2018-06-09T14:54:25.561Z,29.48
2018-06-09T14:55:53.312Z,29.42
2018-06-09T14:57:21.928Z,29.36
2018-06-09T14:58:48.554Z,29.34
2018-06-09T15:00:17.337Z,29.32
2018-06-09T15:01:44.077Z,29.29
2018-06-09T15:03:12.605Z,29.26
2018-06-09T15:04:40.267Z,29.20
2018-06-09T15:06:08.011Z,29.15
2018-06-09T15:07:35.710Z,29.12
2018-06-09T15:09:03.369Z,29.10
2018-06-09T15:10:31.063Z,29.09
2018-06-09T15:11:57.838Z,29.08
2018-06-09T15:13:25.583Z,29.09
2018-06-09T15:14:53.324Z,29.08
2018-06-09T15:16:21.046Z,29.07
2018-06-09T15:17:49.816Z,29.06
2018-06-09T15:19:16.503Z,29.04
2018-06-09T15:20:45.140Z,29.00
2018-06-09T15:22:11.971Z,28.97
2018-06-09T15:23:40.627Z,28.94
2018-06-09T15:25:08.299Z,28.91
2018-06-09T15:26:34.960Z,28.87
2018-06-09T15:28:02.684Z,28.85
2018-06-09T15:29:31.350Z,28.79
2018-06-09T15:31:00.978Z,28.73
2018-06-09T15:32:25.573Z,28.65
2018-06-09T15:33:53.419Z,28.60
2018-06-09T15:35:22.082Z,28.56
2018-06-09T15:36:49.784Z,28.51
2018-06-09T15:38:17.497Z,28.49
2018-06-09T15:39:44.249Z,28.49
2018-06-09T15:41:11.961Z,28.48
2018-06-09T15:42:39.680Z,28.49
2018-06-09T15:44:08.419Z,28.51
2018-06-09T15:45:34.993Z,28.53
2018-06-09T15:47:02.828Z,28.55
2018-06-09T15:48:30.537Z,28.58
2018-06-09T15:49:58.229Z,28.59
2018-06-09T15:51:27.023Z,28.58
2018-06-09T15:52:53.678Z,28.58
2018-06-09T15:54:22.430Z,28.57
2018-06-09T15:55:49.114Z,28.58
2018-06-09T15:57:17.932Z,28.59
2018-06-09T15:58:44.522Z,28.60
2018-06-09T16:00:13.290Z,28.60
2018-06-09T16:01:39.951Z,28.59
2018-06-09T16:03:08.596Z,28.58
2018-06-09T16:04:36.312Z,28.58
2018-06-09T16:06:03.963Z,28.57
2018-06-09T16:07:30.599Z,28.54
2018-06-09T16:08:58.290Z,28.50
2018-06-09T16:10:26.078Z,28.46
2018-06-09T16:11:53.559Z,28.42
2018-06-09T16:13:21.290Z,28.39
2018-06-09T16:14:48.963Z,28.35
2018-06-09T16:16:16.766Z,28.28
2018-06-09T16:17:44.538Z,28.23
2018-06-09T16:19:12.291Z,28.19
2018-06-09T16:20:40.010Z,28.16
2018-06-09T16:22:07.746Z,28.13
2018-06-09T16:23:36.541Z,28.10
2018-06-09T16:25:04.073Z,28.07
2018-06-09T16:26:30.798Z,28.05
2018-06-09T16:27:59.413Z,28.03
2018-06-09T16:29:26.173Z,28.02
2018-06-09T16:30:53.721Z,28.00
2018-06-09T16:32:21.443Z,27.98
2018-06-09T16:33:49.055Z,27.96
2018-06-09T16:35:17.752Z,27.95
2018-06-09T16:36:44.423Z,27.93
2018-06-09T16:38:12.090Z,27.91
2018-06-09T16:39:40.852Z,27.87
2018-06-09T16:41:08.484Z,27.83
2018-06-09T16:42:35.209Z,27.78
2018-06-09T16:44:02.693Z,27.72
2018-06-09T16:45:30.578Z,26.36
2018-06-09T16:46:58.197Z,25.04
2018-06-09T16:48:26.773Z,23.82
2018-06-09T16:49:53.281Z,22.94
2018-06-09T16:51:20.913Z,22.10
2018-06-09T16:52:48.620Z,21.69
2018-06-09T16:54:16.066Z,21.45
2018-06-09T16:55:44.828Z,21.22
2018-06-09T16:57:11.461Z,21.19
2018-06-09T16:58:39.132Z,21.22
2018-06-09T17:00:07.721Z,21.27
2018-06-09T17:01:34.205Z,21.37
2018-06-09T17:03:02.696Z,21.38
2018-06-09T17:04:30.265Z,21.52
2018-06-09T17:05:56.692Z,21.65
2018-06-09T17:07:25.411Z,21.85
2018-06-09T17:08:52.002Z,22.09
2018-06-09T17:10:19.508Z,22.26
2018-06-09T17:11:47.177Z,22.46
2018-06-09T17:13:14.906Z,22.61
2018-06-09T17:14:42.369Z,22.77
2018-06-09T17:16:09.943Z,22.94
2018-06-09T17:17:37.647Z,23.18
2018-06-09T17:19:05.111Z,23.37
2018-06-09T17:20:33.909Z,23.58
2018-06-09T17:22:01.560Z,23.71
2018-06-09T17:23:28.118Z,23.83
2018-06-09T17:24:56.747Z,23.93
2018-06-09T17:26:23.409Z,24.05
2018-06-09T17:27:51.096Z,24.17
2018-06-09T17:29:18.699Z,24.25
2018-06-09T17:30:47.303Z,24.36
2018-06-09T17:32:14.964Z,24.42
2018-06-09T17:33:41.638Z,24.47
2018-06-09T17:35:09.310Z,24.51
2018-06-09T17:36:37.024Z,24.56
2018-06-09T17:38:04.643Z,24.60
2018-06-09T17:39:32.244Z,24.65
2018-06-09T17:41:00.065Z,24.69
2018-06-09T17:42:27.711Z,24.71
2018-06-09T17:43:55.419Z,24.76
2018-06-09T17:45:24.055Z,24.78
2018-06-09T17:46:50.627Z,24.79
2018-06-09T17:48:18.250Z,24.80
2018-06-09T17:49:45.992Z,24.80
2018-06-09T17:51:13.595Z,24.80
2018-06-09T17:52:42.167Z,24.80
2018-06-09T17:54:08.683Z,24.77
2018-06-09T17:55:37.409Z,24.75
2018-06-09T17:57:04.075Z,24.72
2018-06-09T17:58:31.586Z,24.68
2018-06-09T17:59:59.279Z,24.64
2018-06-09T18:01:27.015Z,24.59
2018-06-09T18:02:55.805Z,24.55
2018-06-09T18:04:22.312Z,24.51
2018-06-09T18:05:49.907Z,24.46
2018-06-09T18:07:17.244Z,24.43
2018-06-09T18:08:45.873Z,24.45
2018-06-09T18:10:13.567Z,24.47
2018-06-09T18:11:40.046Z,24.47
2018-06-09T18:13:08.901Z,24.46
2018-06-09T18:14:35.552Z,24.44
2018-06-09T18:16:03.188Z,24.42
2018-06-09T18:17:30.888Z,24.38
2018-06-09T18:18:58.621Z,24.35
2018-06-09T18:20:26.383Z,24.33
2018-06-09T18:21:54.870Z,24.29
2018-06-09T18:23:22.288Z,24.27
2018-06-09T18:24:49.102Z,24.24
2018-06-09T18:26:16.686Z,24.21
2018-06-09T18:27:44.444Z,24.18
2018-06-09T18:29:13.190Z,24.14
2018-06-09T18:30:40.760Z,24.09
2018-06-09T18:32:07.433Z,24.04
2018-06-09T18:33:35.004Z,23.98
2018-06-09T18:35:02.653Z,23.92
2018-06-09T18:36:30.371Z,23.87
2018-06-09T18:37:58.987Z,23.81
2018-06-09T18:39:25.646Z,23.76
2018-06-09T18:40:53.154Z,23.71
2018-06-09T18:42:20.714Z,23.66
2018-06-09T18:43:48.438Z,23.63
2018-06-09T18:45:16.994Z,23.59
2018-06-09T18:46:43.571Z,23.55
2018-06-09T18:48:12.366Z,23.51